Latest METARs, TAFs and NOTAMs for MMPR


---------------------------------------------------------------------------
	(OBSERVATIONS)
MMPR 150345Z 00000KT 12SM  SCT070 BKN090 24/24 A2992 RMK 8/070=
MMPR 150241Z 28002KT 15SM  SCT070 OVC110 25/23 A2991  RMK SLP125
    52013 971 8/07/ SC=
---------------------------------------------------------------------------
	(TERMINAL AREA FORECAST)
MMPR 142321Z 1500/1606 22010KT P6SM SCT070 BKN090 OVC250 TX26/1520Z
    TN19/1512Z
    FM150600 32005KT P6SM SCT120 OVC250
    FM151200 03005KT P6SM BKN250
    FM151800 22010KT P6SM OVC250
    FM160300 00000KT P6SM BKN070 BKN250=
---------------------------------------------------------------------------
	(NOTAMS)


MMPR A3797/17 CHANGED NOMENCLATURE OF THE FOLLOWING ACFT STANDS
    COMMERCIAL AVIATION APRON AS FOLLOWS: ACFT STAND NR-9 TO
    ACFT STAND NR-11 ACFT STAND NR-10 TO ACFT STAND NR-12 ACFT
    STAND NR-11 TO ACFT STAND NR-13 ACFT STAND NR-12 TO ACFT
    STAND NR-14 ACFT STAND NR-13 TO ACFT STAND NR-15 ACFT STAND
    NR-13A TO ACFT STAND NR-5A ACFT STAND NR-14 TO ACFT STAND
    NR-16 ACFT STAND NR-15 TO ACFT STAND NR-17 ACFT STAND NR-15A
    TO ACFT STAND NR-17A ACFT STAND NR-16 TO ACFT STAND NR-18
    ACFT STAND NR-16A TO ACFT STAND NR-18A ACFT STAND NR-17 TO
    ACFT STAND NR-19 ACFT STAND NR-18 TO ACFT STAND NR-20 ACFT
    STAND NR-18A TO ACFT STAND NR-20A. 01 JUL 05:00 2017 UNTIL
    PERM. CREATED: 01 JUL 00:56 2017

MMPR A3798/17 IN OPR ACFT STANDS NRS-9 TO 10 COMMERCIAL AVIATION
    APRON. 01 JUL 05:00 2017 UNTIL PERM. CREATED: 01 JUL 01:01
    2017

MMPR A6976/17 CD OPR IN FREQ 121.9 MHZ. 1600/2300 DLY, 29 OCT
    16:00 2017 UNTIL 07 APR 23:00 2018. CREATED: 26 OCT 13:18
    2017

MMPR A7671/17 TWY B CLSD. 21 NOV 18:37 2017 UNTIL 18 DEC 23:00
    2017. CREATED: 21 NOV 18:39 2017

MMPR A8242/17 RWY 04/22 CLSD. 0600/1130 DLY, 10 DEC 06:00 2017
    UNTIL 15 DEC 11:30 2017. CREATED: 08 DEC 23:47 2017

---------------------------------------------------------------------------